createdAt,value
2023-05-14T00:00:31.023Z,2.70
2023-05-14T00:02:58.254Z,2.53
2023-05-14T00:05:25.666Z,3.03
2023-05-14T00:07:52.855Z,3.00
2023-05-14T00:10:22.166Z,2.50
2023-05-14T00:12:51.277Z,2.50
2023-05-14T00:15:18.522Z,2.88
2023-05-14T00:17:45.975Z,2.90
2023-05-14T00:20:13.349Z,2.80
2023-05-14T00:22:41.046Z,2.45
2023-05-14T00:25:09.297Z,2.75
2023-05-14T00:27:38.014Z,2.55
2023-05-14T00:30:09.101Z,2.80
2023-05-14T00:32:36.411Z,2.47
2023-05-14T00:35:04.575Z,2.58
2023-05-14T00:37:31.846Z,2.92
2023-05-14T00:39:59.223Z,2.40
2023-05-14T00:42:27.336Z,2.95
2023-05-14T00:44:54.549Z,2.78
2023-05-14T00:47:22.030Z,2.72
2023-05-14T00:49:49.389Z,2.60
2023-05-14T00:52:18.015Z,2.67
2023-05-14T00:54:48.291Z,2.72
2023-05-14T00:57:15.653Z,2.80
2023-05-14T00:59:43.649Z,2.60
2023-05-14T01:02:11.526Z,2.78
2023-05-14T01:04:39.388Z,2.72
2023-05-14T01:08:00.560Z,2.58
2023-05-14T01:10:57.757Z,2.53
2023-05-14T01:13:54.827Z,2.75
2023-05-14T01:16:23.965Z,2.58
2023-05-14T01:18:52.912Z,2.60
2023-05-14T01:21:37.576Z,2.55
2023-05-14T01:24:05.271Z,2.60
2023-05-14T01:26:32.967Z,2.60
2023-05-14T01:29:06.874Z,2.80
2023-05-14T01:31:36.985Z,2.47
2023-05-14T01:34:06.080Z,2.60
2023-05-14T01:36:33.905Z,2.47
2023-05-14T01:39:02.208Z,2.47
2023-05-14T01:41:31.232Z,2.85
2023-05-14T01:43:58.665Z,2.90
2023-05-14T01:46:25.945Z,2.60
2023-05-14T01:48:53.098Z,2.47
2023-05-14T01:51:20.367Z,2.58
2023-05-14T01:53:47.482Z,2.60
2023-05-14T01:56:14.724Z,2.78
2023-05-14T01:58:42.045Z,2.78
2023-05-14T02:01:09.284Z,2.70
2023-05-14T02:03:36.515Z,2.50
2023-05-14T02:06:03.869Z,2.72
2023-05-14T02:08:31.050Z,2.60
2023-05-14T02:10:58.295Z,2.53
2023-05-14T02:13:26.647Z,2.88
2023-05-14T02:15:53.895Z,2.67
2023-05-14T02:18:21.199Z,2.80
2023-05-14T02:20:48.366Z,2.67
2023-05-14T02:23:15.578Z,2.70
2023-05-14T02:25:42.734Z,2.78
2023-05-14T02:28:10.275Z,2.78
2023-05-14T02:30:37.469Z,2.80
2023-05-14T02:33:04.734Z,2.80
2023-05-14T02:35:32.066Z,2.63
2023-05-14T02:37:59.817Z,2.88
2023-05-14T02:40:27.018Z,2.95
2023-05-14T02:42:54.156Z,2.58
2023-05-14T02:45:21.833Z,2.50
2023-05-14T02:47:49.134Z,2.53
2023-05-14T02:50:16.437Z,2.42
2023-05-14T02:52:43.681Z,2.60
2023-05-14T02:55:11.913Z,2.75
2023-05-14T02:57:39.043Z,3.15
2023-05-14T03:00:07.201Z,2.75
2023-05-14T03:02:36.040Z,2.35
2023-05-14T03:05:03.739Z,2.55
2023-05-14T03:07:30.905Z,2.42
2023-05-14T03:10:00.479Z,2.40
2023-05-14T03:12:27.764Z,2.65
2023-05-14T03:14:54.942Z,2.50
2023-05-14T03:17:22.156Z,2.40
2023-05-14T03:19:49.359Z,2.60
2023-05-14T03:22:16.618Z,2.38
2023-05-14T03:24:43.726Z,2.67
2023-05-14T03:27:10.929Z,2.72
2023-05-14T03:29:38.147Z,2.70
2023-05-14T03:32:06.379Z,2.60
2023-05-14T03:34:33.642Z,2.80
2023-05-14T03:37:00.815Z,2.78
2023-05-14T03:39:28.053Z,2.40
2023-05-14T03:41:57.345Z,2.60
2023-05-14T03:44:25.338Z,2.65
2023-05-14T03:46:52.548Z,2.40
2023-05-14T03:49:19.749Z,2.47
2023-05-14T03:51:46.937Z,2.80
2023-05-14T03:54:14.133Z,2.50
2023-05-14T03:56:41.567Z,2.67
2023-05-14T03:59:08.870Z,2.67
2023-05-14T04:01:36.011Z,2.58
2023-05-14T04:04:04.691Z,2.63
2023-05-14T04:06:34.055Z,2.63
2023-05-14T04:09:01.317Z,2.72
2023-05-14T04:11:28.505Z,2.80
2023-05-14T04:13:55.894Z,2.65
2023-05-14T04:16:23.115Z,2.85
2023-05-14T04:18:50.423Z,2.78
2023-05-14T04:21:17.714Z,2.80
2023-05-14T04:23:44.863Z,2.63
2023-05-14T04:26:12.100Z,2.70
2023-05-14T04:28:39.317Z,3.13
2023-05-14T04:31:06.795Z,2.78
2023-05-14T04:33:34.004Z,2.70
2023-05-14T04:36:01.574Z,3.13
2023-05-14T04:38:28.885Z,3.13
2023-05-14T04:40:56.142Z,3.10
2023-05-14T04:43:23.297Z,3.30
2023-05-14T04:45:51.855Z,3.42
2023-05-14T04:48:19.345Z,3.20
2023-05-14T04:50:46.734Z,3.25
2023-05-14T04:53:14.088Z,3.22
2023-05-14T04:55:41.556Z,2.90
2023-05-14T04:58:08.843Z,2.78
2023-05-14T05:00:36.231Z,2.83
2023-05-14T05:03:03.665Z,3.15
2023-05-14T05:05:31.073Z,3.00
2023-05-14T05:07:58.232Z,2.97
2023-05-14T05:10:25.738Z,2.80
2023-05-14T05:12:53.204Z,2.70
2023-05-14T05:15:20.491Z,2.92
2023-05-14T05:17:47.838Z,2.83
2023-05-14T05:20:15.100Z,2.85
2023-05-14T05:22:42.302Z,2.90
2023-05-14T05:25:09.676Z,2.88
2023-05-14T05:27:36.805Z,2.67
2023-05-14T05:30:04.263Z,2.88
2023-05-14T05:32:31.923Z,2.90
2023-05-14T05:34:59.133Z,3.22
2023-05-14T05:37:26.424Z,3.08
2023-05-14T05:39:54.257Z,3.13
2023-05-14T05:42:21.399Z,2.83
2023-05-14T05:44:48.704Z,2.92
2023-05-14T05:47:16.123Z,3.13
2023-05-14T05:49:43.314Z,3.05
2023-05-14T05:52:10.717Z,2.90
2023-05-14T05:54:39.999Z,3.00
2023-05-14T05:57:07.356Z,2.67
2023-05-14T05:59:34.617Z,2.85
2023-05-14T06:02:01.990Z,3.15
2023-05-14T06:04:29.575Z,2.85
2023-05-14T06:06:56.769Z,3.05
2023-05-14T06:09:23.990Z,3.10
2023-05-14T06:11:51.457Z,3.03
2023-05-14T06:14:18.773Z,3.03
2023-05-14T06:16:46.441Z,3.05
2023-05-14T06:19:13.975Z,2.83
2023-05-14T06:21:41.325Z,3.30
2023-05-14T06:24:08.867Z,3.20
2023-05-14T06:26:36.011Z,3.17
2023-05-14T06:29:03.177Z,2.80
2023-05-14T06:31:30.404Z,2.78
2023-05-14T06:33:57.537Z,2.55
2023-05-14T06:36:24.724Z,2.92
2023-05-14T06:38:51.915Z,3.03
2023-05-14T06:41:19.040Z,2.45
2023-05-14T06:43:46.177Z,2.90
2023-05-14T06:46:13.428Z,2.65
2023-05-14T06:48:40.640Z,2.63
2023-05-14T06:51:07.901Z,2.80
2023-05-14T06:53:35.105Z,2.90
2023-05-14T06:56:02.284Z,2.67
2023-05-14T06:58:29.397Z,2.40
2023-05-14T07:00:56.655Z,2.60
2023-05-14T07:03:23.837Z,2.42
2023-05-14T07:05:51.159Z,2.65
2023-05-14T07:08:18.342Z,2.50
2023-05-14T07:10:45.598Z,2.50
2023-05-14T07:13:12.935Z,2.72
2023-05-14T07:15:40.118Z,2.40
2023-05-14T07:18:07.435Z,2.50
2023-05-14T07:20:34.675Z,2.67
2023-05-14T07:23:01.876Z,2.38
2023-05-14T07:25:29.113Z,2.35
2023-05-14T07:27:56.627Z,2.55
2023-05-14T07:30:24.193Z,2.42
2023-05-14T07:32:51.730Z,2.13
2023-05-14T07:35:18.975Z,2.13
2023-05-14T07:37:46.310Z,2.42
2023-05-14T07:40:13.552Z,2.40
2023-05-14T07:42:40.743Z,2.45
2023-05-14T07:45:09.769Z,2.72
2023-05-14T07:47:37.124Z,2.63
2023-05-14T07:50:04.571Z,2.22
2023-05-14T07:52:31.725Z,2.58
2023-05-14T07:55:00.199Z,2.30
2023-05-14T07:57:27.577Z,2.25
2023-05-14T07:59:54.826Z,2.47
2023-05-14T08:02:22.750Z,2.38
2023-05-14T08:04:50.051Z,2.53
2023-05-14T08:07:17.535Z,2.65
2023-05-14T08:09:44.811Z,2.63
2023-05-14T08:12:12.252Z,2.70
2023-05-14T08:14:39.458Z,2.65
2023-05-14T08:17:06.960Z,2.38
2023-05-14T08:19:34.164Z,2.58
2023-05-14T08:22:01.279Z,2.70
2023-05-14T08:24:28.520Z,2.53
2023-05-14T08:26:56.230Z,3.10
2023-05-14T08:29:23.482Z,2.78
2023-05-14T08:31:51.538Z,2.72
2023-05-14T08:34:18.806Z,2.80
2023-05-14T08:36:46.157Z,2.40
2023-05-14T08:39:14.002Z,2.33
2023-05-14T08:41:41.654Z,2.30
2023-05-14T08:44:19.748Z,2.20
2023-05-14T08:46:49.576Z,2.45
2023-05-14T08:49:17.443Z,2.30
2023-05-14T08:51:48.685Z,2.35
2023-05-14T08:54:22.701Z,2.35
2023-05-14T08:56:52.485Z,2.38
2023-05-14T08:59:20.368Z,2.20
2023-05-14T09:01:50.796Z,2.33
2023-05-14T09:04:22.445Z,2.67
2023-05-14T09:06:54.022Z,2.22
2023-05-14T09:09:24.553Z,2.92
2023-05-14T09:14:20.139Z,2.00
2023-05-14T09:16:49.212Z,2.60
2023-05-14T09:19:19.394Z,2.58
2023-05-14T09:21:48.077Z,2.80
2023-05-14T09:24:22.023Z,2.70
2023-05-14T09:26:57.776Z,2.20
2023-05-14T09:29:29.938Z,2.10
2023-05-14T09:31:58.773Z,2.03
2023-05-14T09:34:31.356Z,2.70
2023-05-14T09:36:59.674Z,2.78
2023-05-14T09:39:27.636Z,2.45
2023-05-14T09:41:56.140Z,2.40
2023-05-14T09:44:24.017Z,2.22
2023-05-14T09:46:51.892Z,1.90
2023-05-14T09:49:19.179Z,2.10
2023-05-14T09:51:46.693Z,2.25
2023-05-14T09:54:13.926Z,2.05
2023-05-14T09:56:41.311Z,2.47
2023-05-14T09:59:08.420Z,2.40
2023-05-14T10:01:36.468Z,2.30
2023-05-14T10:04:05.734Z,2.42
2023-05-14T10:06:37.362Z,1.40
2023-05-14T10:09:10.264Z,2.30
2023-05-14T10:11:38.693Z,2.30
2023-05-14T10:14:18.765Z,2.67
2023-05-14T10:16:51.691Z,2.47
2023-05-14T10:19:21.702Z,2.60
2023-05-14T10:21:56.022Z,2.50
2023-05-14T10:24:24.116Z,3.08
2023-05-14T10:26:51.834Z,2.30
2023-05-14T10:29:19.049Z,2.38
2023-05-14T10:31:47.240Z,2.70
2023-05-14T10:34:37.981Z,2.88
2023-05-14T10:37:16.012Z,3.00
2023-05-14T10:39:54.241Z,2.78
2023-05-14T10:42:36.409Z,2.30
2023-05-14T10:45:07.735Z,2.25
2023-05-14T10:47:37.621Z,2.60
2023-05-14T10:50:07.709Z,2.60
2023-05-14T10:52:35.663Z,2.70
2023-05-14T10:55:07.900Z,2.80
2023-05-14T10:57:40.292Z,2.53
2023-05-14T11:00:09.329Z,2.50
2023-05-14T11:02:38.836Z,2.72
2023-05-14T11:05:18.305Z,2.00
2023-05-14T11:07:47.355Z,1.73
2023-05-14T11:10:16.606Z,2.38
2023-05-14T11:12:45.855Z,2.25
2023-05-14T11:15:18.912Z,2.83
2023-05-14T11:17:47.696Z,2.70
2023-05-14T11:20:16.871Z,2.15
2023-05-14T11:22:45.372Z,2.40
2023-05-14T11:25:17.202Z,2.30
2023-05-14T11:27:46.193Z,2.78
2023-05-14T11:30:18.745Z,2.40
2023-05-14T11:32:47.700Z,2.58
2023-05-14T11:35:15.796Z,2.70
2023-05-14T11:37:44.365Z,2.05
2023-05-14T11:40:17.636Z,2.58
2023-05-14T11:42:45.030Z,2.45
2023-05-14T11:45:13.922Z,2.55
2023-05-14T11:47:43.925Z,2.30
2023-05-14T11:50:13.906Z,1.85
2023-05-14T11:52:41.990Z,2.22
2023-05-14T11:55:13.166Z,2.10
2023-05-14T11:57:41.348Z,2.20
2023-05-14T12:00:14.692Z,2.40
2023-05-14T12:02:42.120Z,2.50
2023-05-14T12:05:12.969Z,1.27
2023-05-14T12:07:40.566Z,2.40
2023-05-14T12:10:08.345Z,2.70
2023-05-14T12:12:39.498Z,2.60
2023-05-14T12:15:13.994Z,2.20
2023-05-14T12:17:41.776Z,2.50
2023-05-14T12:20:11.319Z,2.60
2023-05-14T12:22:39.427Z,2.38
2023-05-14T12:25:13.722Z,2.58
2023-05-14T12:27:41.418Z,2.50
2023-05-14T12:32:41.454Z,2.20
2023-05-14T12:35:09.681Z,2.00
2023-05-14T12:37:37.824Z,2.53
2023-05-14T12:40:09.859Z,2.50
2023-05-14T12:42:37.333Z,2.35
2023-05-14T12:45:08.425Z,2.30
2023-05-14T12:47:36.638Z,2.40
2023-05-14T12:50:04.373Z,2.38
2023-05-14T12:55:01.904Z,2.53
2023-05-14T12:57:30.445Z,2.50
2023-05-14T12:59:57.915Z,2.38
2023-05-14T13:02:25.240Z,2.38
2023-05-14T13:04:52.471Z,2.58
2023-05-14T13:07:19.657Z,2.50
2023-05-14T13:09:46.861Z,2.30
2023-05-14T13:12:14.127Z,2.60
2023-05-14T13:14:41.351Z,2.50
2023-05-14T13:17:08.898Z,2.60
2023-05-14T13:19:36.142Z,2.20
2023-05-14T13:22:03.374Z,2.17
2023-05-14T13:24:30.661Z,2.10
2023-05-14T13:26:57.877Z,1.92
2023-05-14T13:29:25.087Z,2.38
2023-05-14T13:31:53.203Z,2.33
2023-05-14T13:34:20.387Z,2.13
2023-05-14T13:36:49.473Z,2.10
2023-05-14T13:39:16.741Z,2.55
2023-05-14T13:41:43.971Z,2.30
2023-05-14T13:44:11.155Z,2.60
2023-05-14T13:46:38.893Z,2.70
2023-05-14T13:49:06.800Z,3.10
2023-05-14T13:51:34.062Z,2.30
2023-05-14T13:54:01.233Z,2.30
2023-05-14T13:56:28.476Z,2.30
2023-05-14T13:58:56.010Z,2.50
2023-05-14T14:01:23.566Z,2.47
2023-05-14T14:03:51.027Z,2.38
2023-05-14T14:06:18.196Z,2.58
2023-05-14T14:08:45.515Z,2.28
2023-05-14T14:11:13.907Z,2.40
2023-05-14T14:13:42.274Z,2.08
2023-05-14T14:16:10.843Z,2.05
2023-05-14T14:18:38.209Z,2.17
2023-05-14T14:21:05.603Z,2.10
2023-05-14T14:23:32.750Z,2.08
2023-05-14T14:26:00.417Z,2.40
2023-05-14T14:28:27.608Z,2.47
2023-05-14T14:30:54.695Z,2.40
2023-05-14T14:33:21.969Z,2.50
2023-05-14T14:35:49.174Z,2.38
2023-05-14T14:38:16.285Z,2.67
2023-05-14T14:40:43.534Z,2.80
2023-05-14T14:43:10.905Z,2.40
2023-05-14T14:45:38.105Z,2.50
2023-05-14T14:48:23.975Z,2.50
2023-05-14T14:50:52.186Z,2.40
2023-05-14T14:53:20.904Z,2.30
2023-05-14T14:55:49.273Z,2.25
2023-05-14T14:58:16.743Z,2.47
2023-05-14T15:00:44.545Z,2.08
2023-05-14T15:03:12.164Z,2.47
2023-05-14T15:05:39.575Z,2.53
2023-05-14T15:08:06.930Z,2.45
2023-05-14T15:10:38.155Z,2.47
2023-05-14T15:13:07.129Z,2.15
2023-05-14T15:15:35.966Z,2.53
2023-05-14T15:18:04.626Z,2.40
2023-05-14T15:20:31.967Z,2.10
2023-05-14T15:22:59.221Z,2.20
2023-05-14T15:25:27.223Z,2.08
2023-05-14T15:27:54.541Z,2.33
2023-05-14T15:30:21.811Z,2.30
2023-05-14T15:32:49.175Z,2.45
2023-05-14T15:35:16.519Z,2.25
2023-05-14T15:37:44.849Z,2.10
2023-05-14T15:40:12.926Z,2.50
2023-05-14T15:42:42.318Z,2.28
2023-05-14T15:45:10.888Z,2.25
2023-05-14T15:47:38.162Z,2.22
2023-05-14T15:50:06.227Z,2.40
2023-05-14T15:52:33.846Z,2.10
2023-05-14T15:55:01.077Z,2.50
2023-05-14T15:57:28.300Z,2.13
2023-05-14T15:59:57.056Z,2.40
2023-05-14T16:02:24.334Z,2.00
2023-05-14T16:04:51.484Z,2.15
2023-05-14T16:07:18.831Z,2.10
2023-05-14T16:09:46.053Z,2.45
2023-05-14T16:12:13.177Z,2.15
2023-05-14T16:14:42.061Z,2.05
2023-05-14T16:17:09.628Z,2.08
2023-05-14T16:19:37.164Z,2.13
2023-05-14T16:22:04.464Z,2.17
2023-05-14T16:24:31.580Z,2.28
2023-05-14T16:26:59.812Z,1.92
2023-05-14T16:29:27.005Z,2.20
2023-05-14T16:31:54.175Z,1.90
2023-05-14T16:34:21.386Z,2.40
2023-05-14T16:36:48.638Z,2.13
2023-05-14T16:39:16.714Z,2.00
2023-05-14T16:41:43.854Z,2.00
2023-05-14T16:44:11.215Z,2.00
2023-05-14T16:46:38.431Z,2.05
2023-05-14T16:49:05.781Z,1.92
2023-05-14T19:08:28.529Z,2.30
2023-05-14T19:10:55.789Z,2.20
2023-05-14T19:13:23.934Z,2.40
2023-05-14T19:15:51.406Z,1.98
2023-05-14T19:18:18.754Z,2.30
2023-05-14T19:20:47.019Z,2.00
2023-05-14T19:23:14.276Z,2.58
2023-05-14T19:25:41.418Z,2.30
2023-05-14T19:28:08.663Z,2.50
2023-05-14T19:30:35.931Z,2.55
2023-05-14T19:33:03.492Z,2.40
2023-05-14T19:35:30.992Z,2.42
2023-05-14T19:37:58.388Z,2.15
2023-05-14T19:40:25.601Z,2.45
2023-05-14T19:42:53.518Z,2.20
2023-05-14T19:45:20.908Z,2.17
2023-05-14T19:47:48.574Z,2.30
2023-05-14T19:50:16.272Z,2.20
2023-05-14T19:52:43.485Z,2.38
2023-05-14T19:55:10.685Z,2.17
2023-05-14T19:57:39.522Z,2.40
2023-05-14T20:00:09.219Z,2.20
2023-05-14T20:02:36.498Z,2.20
2023-05-14T20:05:03.934Z,2.22
2023-05-14T20:07:33.927Z,2.10
2023-05-14T20:10:01.068Z,2.20
2023-05-14T20:12:28.272Z,2.17
2023-05-14T20:14:56.299Z,2.30
2023-05-14T20:17:23.725Z,2.47
2023-05-14T20:19:52.485Z,2.25
2023-05-14T20:22:19.684Z,2.38
2023-05-14T20:38:04.051Z,2.40
2023-05-14T20:40:32.919Z,2.60
2023-05-14T20:43:00.154Z,2.35
2023-05-14T20:45:27.849Z,2.15
2023-05-14T20:47:55.256Z,2.10
2023-05-14T20:50:23.241Z,2.30
2023-05-14T20:52:50.480Z,2.40
2023-05-14T20:55:19.141Z,2.20
2023-05-14T20:57:46.313Z,2.38
2023-05-14T21:00:14.024Z,2.60
2023-05-14T21:02:41.581Z,2.45
2023-05-14T21:05:09.119Z,2.30
2023-05-14T21:07:37.606Z,2.05
2023-05-14T21:10:05.184Z,2.17
2023-05-14T21:12:32.398Z,2.15
2023-05-14T21:14:59.808Z,2.30
2023-05-14T21:17:27.084Z,2.05
2023-05-14T21:19:54.275Z,2.22
2023-05-14T21:35:17.891Z,2.60
2023-05-14T21:37:45.382Z,2.53
2023-05-14T21:40:13.098Z,2.35
2023-05-14T21:42:41.052Z,2.38
2023-05-14T21:45:08.914Z,2.13
2023-05-14T21:47:36.777Z,2.50
2023-05-14T21:50:05.190Z,2.30
2023-05-14T21:52:32.428Z,2.25
2023-05-14T21:54:59.722Z,2.03
2023-05-14T21:57:28.243Z,2.30
2023-05-14T21:59:56.203Z,2.13
2023-05-14T22:02:23.547Z,2.35
2023-05-14T22:04:50.816Z,2.42
2023-05-14T22:07:18.099Z,2.35
2023-05-14T22:09:45.356Z,2.20
2023-05-14T22:12:12.476Z,2.13
2023-05-14T22:14:39.697Z,2.25
2023-05-14T22:17:07.377Z,2.20
2023-05-14T22:19:34.627Z,2.40
2023-05-14T22:22:01.803Z,2.28
2023-05-14T22:24:29.012Z,2.47
2023-05-14T22:26:56.277Z,2.33
2023-05-14T22:29:23.488Z,2.40
2023-05-14T22:31:50.770Z,2.28
2023-05-14T22:34:18.088Z,2.20
2023-05-14T22:36:45.333Z,2.20
2023-05-14T22:39:13.632Z,2.35
2023-05-14T22:41:41.055Z,2.50
2023-05-14T22:44:08.302Z,2.20
2023-05-14T22:46:35.965Z,2.50
2023-05-14T22:49:03.387Z,2.10
2023-05-14T22:51:30.773Z,2.05
2023-05-14T22:53:58.146Z,2.00
2023-05-14T22:56:25.455Z,2.20
2023-05-14T22:58:52.673Z,2.08
2023-05-14T23:01:19.896Z,2.08
2023-05-14T23:03:47.107Z,2.30
2023-05-14T23:06:15.015Z,2.30
2023-05-14T23:08:42.391Z,2.15
2023-05-14T23:11:09.912Z,2.20
2023-05-14T23:13:37.187Z,2.20
2023-05-14T23:16:05.088Z,2.30
2023-05-14T23:18:32.688Z,2.08
2023-05-14T23:21:00.037Z,2.15
2023-05-14T23:23:27.297Z,2.50
2023-05-14T23:25:54.616Z,2.45
2023-05-14T23:28:21.857Z,2.50
2023-05-14T23:30:49.410Z,2.42
2023-05-14T23:33:16.645Z,2.75
2023-05-14T23:35:44.349Z,2.30
2023-05-14T23:38:11.939Z,2.30
2023-05-14T23:40:39.109Z,2.30
2023-05-14T23:43:06.820Z,2.58
2023-05-14T23:45:34.175Z,2.15
2023-05-14T23:48:02.494Z,2.50
2023-05-14T23:50:29.761Z,2.20
2023-05-14T23:52:57.036Z,2.17
2023-05-14T23:55:24.514Z,2.22
2023-05-14T23:57:51.970Z,2.40
